Edinburgh M. O., Australia
Current Conditions -  °F | °C
As of 9:00 PM on Sunday 23 Nov 2014 (Local Time) from YPAD Reporting Station
Clear Clear  
Wind Chill: 75°   Ceiling: Unl
Heat Index: 75°   Visibility: 6mi
Dew Point: 55°   Wind: 10mph
Humidity: 50%   Direction: 170°S
Pressure: 29.77"   Gusts: NA
Location:  34.71°S, 138.65°E
Report Text: YPAD 231100Z 17009KT CAVOK 24/13 Q1008 NOSIG
Loading
Personal Weather Stations






























Interactive Weather Map New forecast layout! Learn more

10-Day Weather Forecast

Advertisements
Track Severe Weather on mobile